sensor_id;sensor_type;location;lat;lon;timestamp;temperature;humidity
36322;DHT22;23564;48.290;11.460;2022-12-13T00:01:55;-7.00;99.90
36322;DHT22;23564;48.290;11.460;2022-12-13T00:04:22;-7.00;99.90
36322;DHT22;23564;48.290;11.460;2022-12-13T00:06:49;-7.10;99.90
36322;DHT22;23564;48.290;11.460;2022-12-13T00:09:16;-7.10;99.90
36322;DHT22;23564;48.290;11.460;2022-12-13T00:11:42;-7.10;99.90
36322;DHT22;23564;48.290;11.460;2022-12-13T00:14:08;-7.30;99.90
36322;DHT22;23564;48.290;11.460;2022-12-13T00:16:35;-7.30;1.00
36322;DHT22;23564;48.290;11.460;2022-12-13T00:19:01;-7.30;1.00
36322;DHT22;23564;48.290;11.460;2022-12-13T00:21:29;-7.40;1.00
36322;DHT22;23564;48.290;11.460;2022-12-13T00:23:56;-7.40;1.00
36322;DHT22;23564;48.290;11.460;2022-12-13T00:26:25;-7.30;1.00
36322;DHT22;23564;48.290;11.460;2022-12-13T00:28:51;-7.30;1.20
36322;DHT22;23564;48.290;11.460;2022-12-13T00:31:19;-7.30;1.00
36322;DHT22;23564;48.290;11.460;2022-12-13T00:33:45;-7.30;47.10
36322;DHT22;23564;48.290;11.460;2022-12-13T00:36:11;-7.30;17.80
36322;DHT22;23564;48.290;11.460;2022-12-13T00:38:37;-7.30;1.00
36322;DHT22;23564;48.290;11.460;2022-12-13T00:41:17;-7.40;1.00
36322;DHT22;23564;48.290;11.460;2022-12-13T00:43:44;-7.30;1.00
36322;DHT22;23564;48.290;11.460;2022-12-13T00:46:14;-7.30;1.00
36322;DHT22;23564;48.290;11.460;2022-12-13T00:48:40;-7.40;1.00
36322;DHT22;23564;48.290;11.460;2022-12-13T00:51:07;-7.40;1.00
36322;DHT22;23564;48.290;11.460;2022-12-13T00:53:33;-7.40;1.00
36322;DHT22;23564;48.290;11.460;2022-12-13T00:55:59;-7.30;1.00
36322;DHT22;23564;48.290;11.460;2022-12-13T00:58:24;-7.30;1.00
36322;DHT22;23564;48.290;11.460;2022-12-13T01:00:50;-7.30;1.00
36322;DHT22;23564;48.290;11.460;2022-12-13T01:03:15;-7.30;1.00
36322;DHT22;23564;48.290;11.460;2022-12-13T01:05:48;-7.40;99.90
36322;DHT22;23564;48.290;11.460;2022-12-13T01:08:14;-7.40;99.90
36322;DHT22;23564;48.290;11.460;2022-12-13T01:10:44;-7.40;99.90
36322;DHT22;23564;48.290;11.460;2022-12-13T01:13:10;-7.40;99.90
36322;DHT22;23564;48.290;11.460;2022-12-13T01:15:40;-7.40;99.90
36322;DHT22;23564;48.290;11.460;2022-12-13T01:18:06;-7.50;99.90
36322;DHT22;23564;48.290;11.460;2022-12-13T01:20:32;-7.50;99.90
36322;DHT22;23564;48.290;11.460;2022-12-13T01:22:57;-7.50;99.90
36322;DHT22;23564;48.290;11.460;2022-12-13T01:25:23;-7.50;99.90
36322;DHT22;23564;48.290;11.460;2022-12-13T01:27:48;-7.50;99.90
36322;DHT22;23564;48.290;11.460;2022-12-13T01:30:14;-7.50;99.90
36322;DHT22;23564;48.290;11.460;2022-12-13T01:32:39;-7.50;99.90
36322;DHT22;23564;48.290;11.460;2022-12-13T01:35:05;-7.60;99.90
36322;DHT22;23564;48.290;11.460;2022-12-13T01:37:31;-7.60;99.90
36322;DHT22;23564;48.290;11.460;2022-12-13T01:39:56;-7.60;99.90
36322;DHT22;23564;48.290;11.460;2022-12-13T01:42:22;-7.60;99.90
36322;DHT22;23564;48.290;11.460;2022-12-13T01:45:00;-7.60;99.90
36322;DHT22;23564;48.290;11.460;2022-12-13T01:47:39;-7.60;99.90
36322;DHT22;23564;48.290;11.460;2022-12-13T01:50:10;-7.60;99.90
36322;DHT22;23564;48.290;11.460;2022-12-13T01:52:37;-7.70;99.90
36322;DHT22;23564;48.290;11.460;2022-12-13T01:55:06;-7.60;1.00
36322;DHT22;23564;48.290;11.460;2022-12-13T01:57:33;-7.60;1.00
36322;DHT22;23564;48.290;11.460;2022-12-13T01:59:59;-7.70;1.00
36322;DHT22;23564;48.290;11.460;2022-12-13T02:02:25;-7.70;1.00
36322;DHT22;23564;48.290;11.460;2022-12-13T02:05:20;-7.60;1.00
36322;DHT22;23564;48.290;11.460;2022-12-13T02:07:47;-7.70;1.00
36322;DHT22;23564;48.290;11.460;2022-12-13T02:10:13;-7.70;1.00
36322;DHT22;23564;48.290;11.460;2022-12-13T02:12:39;-7.60;1.00
36322;DHT22;23564;48.290;11.460;2022-12-13T02:15:11;-7.60;1.00
36322;DHT22;23564;48.290;11.460;2022-12-13T02:23:36;-7.60;1.00
36322;DHT22;23564;48.290;11.460;2022-12-13T02:34:14;-7.70;99.90
36322;DHT22;23564;48.290;11.460;2022-12-13T02:37:17;-7.70;99.90
36322;DHT22;23564;48.290;11.460;2022-12-13T02:40:08;-7.70;99.90
36322;DHT22;23564;48.290;11.460;2022-12-13T02:45:51;-7.80;99.90
36322;DHT22;23564;48.290;11.460;2022-12-13T02:48:22;-7.80;99.90
36322;DHT22;23564;48.290;11.460;2022-12-13T02:50:50;-7.80;99.90
36322;DHT22;23564;48.290;11.460;2022-12-13T02:53:17;-7.90;99.90
36322;DHT22;23564;48.290;11.460;2022-12-13T02:55:43;-7.90;99.90
36322;DHT22;23564;48.290;11.460;2022-12-13T02:58:12;-8.00;99.90
36322;DHT22;23564;48.290;11.460;2022-12-13T03:00:52;-8.00;99.90
36322;DHT22;23564;48.290;11.460;2022-12-13T03:03:29;-8.10;99.90
36322;DHT22;23564;48.290;11.460;2022-12-13T03:06:13;-8.10;99.90
36322;DHT22;23564;48.290;11.460;2022-12-13T03:14:48;-8.20;1.00
36322;DHT22;23564;48.290;11.460;2022-12-13T03:17:19;-8.20;99.90
36322;DHT22;23564;48.290;11.460;2022-12-13T03:19:45;-8.20;99.90
36322;DHT22;23564;48.290;11.460;2022-12-13T03:22:11;-8.20;99.90
36322;DHT22;23564;48.290;11.460;2022-12-13T03:24:37;-8.20;99.90
36322;DHT22;23564;48.290;11.460;2022-12-13T03:27:03;-8.20;99.90
36322;DHT22;23564;48.290;11.460;2022-12-13T03:29:28;-8.20;99.90
36322;DHT22;23564;48.290;11.460;2022-12-13T03:31:54;-8.30;99.90
36322;DHT22;23564;48.290;11.460;2022-12-13T03:34:19;-8.30;99.90
36322;DHT22;23564;48.290;11.460;2022-12-13T03:36:45;-8.30;99.90
36322;DHT22;23564;48.290;11.460;2022-12-13T03:39:10;-8.30;99.90
36322;DHT22;23564;48.290;11.460;2022-12-13T03:41:36;-8.30;99.90
36322;DHT22;23564;48.290;11.460;2022-12-13T03:44:04;-8.30;99.90
36322;DHT22;23564;48.290;11.460;2022-12-13T03:46:30;-8.30;99.90
36322;DHT22;23564;48.290;11.460;2022-12-13T03:48:56;-8.30;99.90
36322;DHT22;23564;48.290;11.460;2022-12-13T03:51:21;-8.30;99.90
36322;DHT22;23564;48.290;11.460;2022-12-13T03:53:47;-8.30;99.90
36322;DHT22;23564;48.290;11.460;2022-12-13T03:56:13;-8.30;99.90
36322;DHT22;23564;48.290;11.460;2022-12-13T03:58:38;-8.30;99.90
36322;DHT22;23564;48.290;11.460;2022-12-13T04:01:09;-8.20;99.90
36322;DHT22;23564;48.290;11.460;2022-12-13T04:03:36;-8.20;99.90
36322;DHT22;23564;48.290;11.460;2022-12-13T04:06:03;-8.20;99.90
36322;DHT22;23564;48.290;11.460;2022-12-13T04:08:29;-8.10;99.90
36322;DHT22;23564;48.290;11.460;2022-12-13T04:10:54;-8.20;99.90
36322;DHT22;23564;48.290;11.460;2022-12-13T04:13:20;-8.30;99.90
36322;DHT22;23564;48.290;11.460;2022-12-13T04:15:57;-8.30;99.90
36322;DHT22;23564;48.290;11.460;2022-12-13T04:18:23;-8.20;99.90
36322;DHT22;23564;48.290;11.460;2022-12-13T04:20:49;-8.20;99.90
36322;DHT22;23564;48.290;11.460;2022-12-13T04:23:14;-8.30;99.90
36322;DHT22;23564;48.290;11.460;2022-12-13T04:25:41;-8.30;99.90
36322;DHT22;23564;48.290;11.460;2022-12-13T04:28:07;-8.30;99.90
36322;DHT22;23564;48.290;11.460;2022-12-13T04:30:33;-8.30;99.90
36322;DHT22;23564;48.290;11.460;2022-12-13T04:32:59;-8.30;93.80
36322;DHT22;23564;48.290;11.460;2022-12-13T04:35:25;-8.40;71.30
36322;DHT22;23564;48.290;11.460;2022-12-13T04:37:51;-8.40;99.90
36322;DHT22;23564;48.290;11.460;2022-12-13T04:40:17;-8.40;99.90
36322;DHT22;23564;48.290;11.460;2022-12-13T04:42:43;-8.40;99.90
36322;DHT22;23564;48.290;11.460;2022-12-13T04:45:16;-8.40;99.90
36322;DHT22;23564;48.290;11.460;2022-12-13T04:47:42;-8.40;99.90
36322;DHT22;23564;48.290;11.460;2022-12-13T04:50:08;-8.40;99.90
36322;DHT22;23564;48.290;11.460;2022-12-13T04:52:33;-8.40;99.90
36322;DHT22;23564;48.290;11.460;2022-12-13T04:54:59;-8.40;99.90
36322;DHT22;23564;48.290;11.460;2022-12-13T04:57:25;-8.40;99.90
36322;DHT22;23564;48.290;11.460;2022-12-13T04:59:50;-8.40;99.90
36322;DHT22;23564;48.290;11.460;2022-12-13T05:02:16;-8.40;99.90
36322;DHT22;23564;48.290;11.460;2022-12-13T05:04:44;-8.40;99.90
36322;DHT22;23564;48.290;11.460;2022-12-13T05:07:09;-8.40;99.90
36322;DHT22;23564;48.290;11.460;2022-12-13T05:09:35;-8.40;99.90
36322;DHT22;23564;48.290;11.460;2022-12-13T05:12:00;-8.50;99.90
36322;DHT22;23564;48.290;11.460;2022-12-13T05:14:26;-8.50;99.90
36322;DHT22;23564;48.290;11.460;2022-12-13T05:16:52;-8.40;99.90
36322;DHT22;23564;48.290;11.460;2022-12-13T05:19:17;-8.40;99.90
36322;DHT22;23564;48.290;11.460;2022-12-13T05:21:43;-8.40;99.90
36322;DHT22;23564;48.290;11.460;2022-12-13T05:24:08;-8.40;99.90
36322;DHT22;23564;48.290;11.460;2022-12-13T05:26:34;-8.40;99.90
36322;DHT22;23564;48.290;11.460;2022-12-13T05:29:00;-8.40;99.90
36322;DHT22;23564;48.290;11.460;2022-12-13T05:31:26;-8.30;99.90
36322;DHT22;23564;48.290;11.460;2022-12-13T05:33:51;-8.30;99.90
36322;DHT22;23564;48.290;11.460;2022-12-13T05:36:18;-8.30;99.90
36322;DHT22;23564;48.290;11.460;2022-12-13T05:38:44;-8.40;1.00
36322;DHT22;23564;48.290;11.460;2022-12-13T05:41:21;-8.30;1.00
36322;DHT22;23564;48.290;11.460;2022-12-13T05:43:49;-8.30;1.00
36322;DHT22;23564;48.290;11.460;2022-12-13T05:46:15;-8.30;1.00
36322;DHT22;23564;48.290;11.460;2022-12-13T05:48:41;-8.20;1.00
36322;DHT22;23564;48.290;11.460;2022-12-13T05:51:07;-8.30;1.00
36322;DHT22;23564;48.290;11.460;2022-12-13T05:53:33;-8.40;1.00
36322;DHT22;23564;48.290;11.460;2022-12-13T05:55:59;-8.40;1.00
36322;DHT22;23564;48.290;11.460;2022-12-13T05:58:25;-8.40;1.00
36322;DHT22;23564;48.290;11.460;2022-12-13T06:00:50;-8.40;1.00
36322;DHT22;23564;48.290;11.460;2022-12-13T06:03:16;-8.40;1.00
36322;DHT22;23564;48.290;11.460;2022-12-13T06:05:42;-8.40;11.10
36322;DHT22;23564;48.290;11.460;2022-12-13T06:08:08;-8.40;4.20
36322;DHT22;23564;48.290;11.460;2022-12-13T06:10:34;-8.20;1.30
36322;DHT22;23564;48.290;11.460;2022-12-13T06:13:00;-8.20;1.00
36322;DHT22;23564;48.290;11.460;2022-12-13T06:15:25;-8.20;1.00
36322;DHT22;23564;48.290;11.460;2022-12-13T06:17:51;-8.20;1.00
36322;DHT22;23564;48.290;11.460;2022-12-13T06:20:16;-8.10;1.00
36322;DHT22;23564;48.290;11.460;2022-12-13T06:22:42;-8.10;1.00
36322;DHT22;23564;48.290;11.460;2022-12-13T06:25:08;-8.10;1.00
36322;DHT22;23564;48.290;11.460;2022-12-13T06:27:34;-8.10;1.00
36322;DHT22;23564;48.290;11.460;2022-12-13T06:30:00;-8.10;99.90
36322;DHT22;23564;48.290;11.460;2022-12-13T06:32:25;-8.00;99.90
36322;DHT22;23564;48.290;11.460;2022-12-13T06:34:51;-8.00;99.90
36322;DHT22;23564;48.290;11.460;2022-12-13T06:37:16;-8.00;99.90
36322;DHT22;23564;48.290;11.460;2022-12-13T06:39:42;-8.10;99.90
36322;DHT22;23564;48.290;11.460;2022-12-13T06:42:14;-8.00;99.90
36322;DHT22;23564;48.290;11.460;2022-12-13T06:44:40;-8.10;99.90
36322;DHT22;23564;48.290;11.460;2022-12-13T06:47:06;-8.20;99.90
36322;DHT22;23564;48.290;11.460;2022-12-13T06:49:32;-8.20;1.00
36322;DHT22;23564;48.290;11.460;2022-12-13T06:51:58;-8.20;1.00
36322;DHT22;23564;48.290;11.460;2022-12-13T06:54:23;-8.30;1.00
36322;DHT22;23564;48.290;11.460;2022-12-13T06:56:49;-8.30;1.00
36322;DHT22;23564;48.290;11.460;2022-12-13T06:59:14;-8.20;6.80
36322;DHT22;23564;48.290;11.460;2022-12-13T07:01:40;-8.10;1.00
36322;DHT22;23564;48.290;11.460;2022-12-13T07:04:06;-8.10;99.90
36322;DHT22;23564;48.290;11.460;2022-12-13T07:06:33;-8.00;99.90
36322;DHT22;23564;48.290;11.460;2022-12-13T07:08:59;-8.00;99.90
36322;DHT22;23564;48.290;11.460;2022-12-13T07:11:26;-7.90;99.90
36322;DHT22;23564;48.290;11.460;2022-12-13T07:13:53;-7.80;99.90
36322;DHT22;23564;48.290;11.460;2022-12-13T07:16:20;-7.70;99.90
36322;DHT22;23564;48.290;11.460;2022-12-13T07:18:46;-7.60;99.90
36322;DHT22;23564;48.290;11.460;2022-12-13T07:21:13;-7.50;99.90
36322;DHT22;23564;48.290;11.460;2022-12-13T07:23:40;-7.50;80.60
36322;DHT22;23564;48.290;11.460;2022-12-13T07:26:07;-7.50;1.00
36322;DHT22;23564;48.290;11.460;2022-12-13T07:28:34;-7.60;1.00
36322;DHT22;23564;48.290;11.460;2022-12-13T07:31:01;-7.60;1.00
36322;DHT22;23564;48.290;11.460;2022-12-13T07:33:27;-7.60;1.00
36322;DHT22;23564;48.290;11.460;2022-12-13T07:36:06;-7.50;1.00
36322;DHT22;23564;48.290;11.460;2022-12-13T07:38:34;-7.40;15.60
36322;DHT22;23564;48.290;11.460;2022-12-13T07:40:59;-7.30;1.00
36322;DHT22;23564;48.290;11.460;2022-12-13T07:43:25;-7.40;8.40
36322;DHT22;23564;48.290;11.460;2022-12-13T07:45:51;-7.30;99.90
36322;DHT22;23564;48.290;11.460;2022-12-13T07:48:17;-7.20;99.90
36322;DHT22;23564;48.290;11.460;2022-12-13T07:50:44;-7.20;99.90
36322;DHT22;23564;48.290;11.460;2022-12-13T07:53:09;-7.20;99.90
36322;DHT22;23564;48.290;11.460;2022-12-13T07:55:35;-7.10;99.90
36322;DHT22;23564;48.290;11.460;2022-12-13T07:58:06;-7.00;99.90
36322;DHT22;23564;48.290;11.460;2022-12-13T08:00:33;-7.00;99.90
36322;DHT22;23564;48.290;11.460;2022-12-13T08:03:00;-6.90;99.90
36322;DHT22;23564;48.290;11.460;2022-12-13T08:05:26;-6.80;99.90
36322;DHT22;23564;48.290;11.460;2022-12-13T08:07:52;-6.70;99.90
36322;DHT22;23564;48.290;11.460;2022-12-13T08:10:18;-6.60;99.90
36322;DHT22;23564;48.290;11.460;2022-12-13T08:12:43;-6.50;99.90
36322;DHT22;23564;48.290;11.460;2022-12-13T08:15:10;-6.40;99.90
36322;DHT22;23564;48.290;11.460;2022-12-13T08:17:35;-6.30;99.90
36322;DHT22;23564;48.290;11.460;2022-12-13T08:20:01;-6.30;29.30
36322;DHT22;23564;48.290;11.460;2022-12-13T08:22:27;-6.30;38.20
36322;DHT22;23564;48.290;11.460;2022-12-13T08:24:52;-6.20;1.00
36322;DHT22;23564;48.290;11.460;2022-12-13T08:27:18;-6.30;1.00
36322;DHT22;23564;48.290;11.460;2022-12-13T08:29:44;-6.20;1.00
36322;DHT22;23564;48.290;11.460;2022-12-13T08:32:11;-6.20;1.00
36322;DHT22;23564;48.290;11.460;2022-12-13T08:34:37;-6.30;1.00
36322;DHT22;23564;48.290;11.460;2022-12-13T08:37:04;-6.30;1.00
36322;DHT22;23564;48.290;11.460;2022-12-13T08:39:34;-6.30;1.00
36322;DHT22;23564;48.290;11.460;2022-12-13T08:42:05;-6.40;1.00
36322;DHT22;23564;48.290;11.460;2022-12-13T08:44:31;-6.40;1.00
36322;DHT22;23564;48.290;11.460;2022-12-13T08:46:57;-6.30;1.00
36322;DHT22;23564;48.290;11.460;2022-12-13T08:49:22;-6.40;1.00
36322;DHT22;23564;48.290;11.460;2022-12-13T08:51:48;-6.40;1.00
36322;DHT22;23564;48.290;11.460;2022-12-13T08:54:13;-6.40;1.00
36322;DHT22;23564;48.290;11.460;2022-12-13T08:56:39;-6.50;1.00
36322;DHT22;23564;48.290;11.460;2022-12-13T08:59:04;-6.50;1.00
36322;DHT22;23564;48.290;11.460;2022-12-13T09:01:30;-6.50;1.00
36322;DHT22;23564;48.290;11.460;2022-12-13T09:03:56;-6.50;1.00
36322;DHT22;23564;48.290;11.460;2022-12-13T09:06:21;-6.40;40.70
36322;DHT22;23564;48.290;11.460;2022-12-13T09:08:47;-6.30;43.60
36322;DHT22;23564;48.290;11.460;2022-12-13T09:11:12;-6.40;30.00
36322;DHT22;23564;48.290;11.460;2022-12-13T09:13:39;-6.30;48.90
36322;DHT22;23564;48.290;11.460;2022-12-13T09:16:12;-6.30;80.80
36322;DHT22;23564;48.290;11.460;2022-12-13T09:18:37;-6.30;40.20
36322;DHT22;23564;48.290;11.460;2022-12-13T09:21:07;-6.20;36.00
36322;DHT22;23564;48.290;11.460;2022-12-13T09:23:34;-6.20;83.30
36322;DHT22;23564;48.290;11.460;2022-12-13T09:26:00;-6.10;1.00
36322;DHT22;23564;48.290;11.460;2022-12-13T09:28:26;-6.10;1.00
36322;DHT22;23564;48.290;11.460;2022-12-13T09:30:54;-6.20;1.00
36322;DHT22;23564;48.290;11.460;2022-12-13T09:33:19;-6.20;1.00
36322;DHT22;23564;48.290;11.460;2022-12-13T09:35:45;-6.20;1.00
36322;DHT22;23564;48.290;11.460;2022-12-13T09:38:11;-6.20;1.00
36322;DHT22;23564;48.290;11.460;2022-12-13T09:40:38;-6.20;1.00
36322;DHT22;23564;48.290;11.460;2022-12-13T09:43:05;-6.20;1.00
36322;DHT22;23564;48.290;11.460;2022-12-13T09:45:30;-6.20;1.00
36322;DHT22;23564;48.290;11.460;2022-12-13T09:47:58;-6.20;2.00
36322;DHT22;23564;48.290;11.460;2022-12-13T09:50:27;-6.20;1.00
36322;DHT22;23564;48.290;11.460;2022-12-13T09:52:54;-6.20;1.00
36322;DHT22;23564;48.290;11.460;2022-12-13T09:55:21;-6.10;1.00
36322;DHT22;23564;48.290;11.460;2022-12-13T09:57:48;-6.10;1.00
36322;DHT22;23564;48.290;11.460;2022-12-13T10:00:16;-6.00;54.30
36322;DHT22;23564;48.290;11.460;2022-12-13T10:02:48;-5.90;13.50
36322;DHT22;23564;48.290;11.460;2022-12-13T10:05:27;-6.00;1.00
36322;DHT22;23564;48.290;11.460;2022-12-13T10:07:56;-5.90;1.00
36322;DHT22;23564;48.290;11.460;2022-12-13T10:10:22;-5.80;1.00
36322;DHT22;23564;48.290;11.460;2022-12-13T10:12:56;-5.70;1.00
36322;DHT22;23564;48.290;11.460;2022-12-13T10:15:24;-5.70;1.00
36322;DHT22;23564;48.290;11.460;2022-12-13T10:17:50;-5.70;1.00
36322;DHT22;23564;48.290;11.460;2022-12-13T10:20:18;-5.60;1.00
36322;DHT22;23564;48.290;11.460;2022-12-13T10:22:45;-5.50;1.00
36322;DHT22;23564;48.290;11.460;2022-12-13T10:25:11;-5.50;1.00
36322;DHT22;23564;48.290;11.460;2022-12-13T10:32:42;-5.50;99.90
36322;DHT22;23564;48.290;11.460;2022-12-13T10:35:28;-5.40;99.90
36322;DHT22;23564;48.290;11.460;2022-12-13T10:37:56;-5.40;99.90
36322;DHT22;23564;48.290;11.460;2022-12-13T10:43:18;-5.30;99.90
36322;DHT22;23564;48.290;11.460;2022-12-13T10:48:51;-5.20;1.00
36322;DHT22;23564;48.290;11.460;2022-12-13T10:51:19;-5.10;99.90
36322;DHT22;23564;48.290;11.460;2022-12-13T10:53:47;-5.10;99.90
36322;DHT22;23564;48.290;11.460;2022-12-13T10:56:16;-5.10;99.90
36322;DHT22;23564;48.290;11.460;2022-12-13T10:58:44;-5.00;99.90
36322;DHT22;23564;48.290;11.460;2022-12-13T11:01:27;-5.00;99.90
36322;DHT22;23564;48.290;11.460;2022-12-13T11:04:03;-5.00;99.90
36322;DHT22;23564;48.290;11.460;2022-12-13T11:06:46;-5.00;99.90
36322;DHT22;23564;48.290;11.460;2022-12-13T11:09:20;-5.10;99.90
36322;DHT22;23564;48.290;11.460;2022-12-13T11:11:50;-5.10;99.90
36322;DHT22;23564;48.290;11.460;2022-12-13T11:14:18;-5.10;99.90
36322;DHT22;23564;48.290;11.460;2022-12-13T11:16:50;-5.10;99.90
36322;DHT22;23564;48.290;11.460;2022-12-13T11:21:46;-5.10;99.90
36322;DHT22;23564;48.290;11.460;2022-12-13T11:24:21;-5.10;99.90
36322;DHT22;23564;48.290;11.460;2022-12-13T11:26:56;-5.10;99.90
36322;DHT22;23564;48.290;11.460;2022-12-13T11:32:21;-5.10;99.90
36322;DHT22;23564;48.290;11.460;2022-12-13T11:37:51;-5.10;99.90
36322;DHT22;23564;48.290;11.460;2022-12-13T11:40:28;-5.00;99.90
36322;DHT22;23564;48.290;11.460;2022-12-13T11:43:13;-5.00;99.90
36322;DHT22;23564;48.290;11.460;2022-12-13T11:45:45;-4.80;99.90
36322;DHT22;23564;48.290;11.460;2022-12-13T11:48:20;-4.70;99.90
36322;DHT22;23564;48.290;11.460;2022-12-13T11:50:50;-4.70;99.90
36322;DHT22;23564;48.290;11.460;2022-12-13T11:53:21;-4.70;99.90
36322;DHT22;23564;48.290;11.460;2022-12-13T11:58:42;-4.50;99.90
36322;DHT22;23564;48.290;11.460;2022-12-13T12:01:13;-4.40;99.90
36322;DHT22;23564;48.290;11.460;2022-12-13T12:06:49;-4.60;99.70
36322;DHT22;23564;48.290;11.460;2022-12-13T12:09:19;-4.60;1.00
36322;DHT22;23564;48.290;11.460;2022-12-13T12:12:05;-4.60;99.90
36322;DHT22;23564;48.290;11.460;2022-12-13T12:15:04;-4.60;1.00
36322;DHT22;23564;48.290;11.460;2022-12-13T12:17:26;-4.60;1.00
36322;DHT22;23564;48.290;11.460;2022-12-13T12:19:54;-4.60;99.90
36322;DHT22;23564;48.290;11.460;2022-12-13T12:36:58;-4.10;99.90
36322;DHT22;23564;48.290;11.460;2022-12-13T12:45:04;-4.00;99.90
36322;DHT22;23564;48.290;11.460;2022-12-13T12:50:41;-4.00;1.00
36322;DHT22;23564;48.290;11.460;2022-12-13T12:53:40;-4.10;1.00
36322;DHT22;23564;48.290;11.460;2022-12-13T13:02:20;-3.90;99.90
36322;DHT22;23564;48.290;11.460;2022-12-13T13:04:53;-3.90;1.00
36322;DHT22;23564;48.290;11.460;2022-12-13T13:07:35;-3.90;9.40
36322;DHT22;23564;48.290;11.460;2022-12-13T13:10:03;-3.90;35.30
36322;DHT22;23564;48.290;11.460;2022-12-13T13:12:31;-3.90;38.70
36322;DHT22;23564;48.290;11.460;2022-12-13T13:14:57;-3.90;1.00
36322;DHT22;23564;48.290;11.460;2022-12-13T13:22:38;-3.90;99.90
36322;DHT22;23564;48.290;11.460;2022-12-13T13:27:39;-3.90;1.00
36322;DHT22;23564;48.290;11.460;2022-12-13T13:30:17;-3.90;1.00
36322;DHT22;23564;48.290;11.460;2022-12-13T13:32:44;-3.90;22.60
36322;DHT22;23564;48.290;11.460;2022-12-13T13:40:42;-3.90;1.00
36322;DHT22;23564;48.290;11.460;2022-12-13T13:45:58;-3.80;1.00
36322;DHT22;23564;48.290;11.460;2022-12-13T13:59:29;-3.90;99.90
36322;DHT22;23564;48.290;11.460;2022-12-13T14:02:33;-3.90;99.90
36322;DHT22;23564;48.290;11.460;2022-12-13T14:10:33;-3.70;1.00
36322;DHT22;23564;48.290;11.460;2022-12-13T14:21:32;-3.80;99.90
36322;DHT22;23564;48.290;11.460;2022-12-13T14:24:13;-3.90;99.90
36322;DHT22;23564;48.290;11.460;2022-12-13T14:29:46;-3.90;99.90
36322;DHT22;23564;48.290;11.460;2022-12-13T14:32:29;-4.00;99.90
36322;DHT22;23564;48.290;11.460;2022-12-13T14:34:57;-4.00;99.90
36322;DHT22;23564;48.290;11.460;2022-12-13T14:37:29;-4.00;1.00
36322;DHT22;23564;48.290;11.460;2022-12-13T14:39:56;-4.10;1.00
36322;DHT22;23564;48.290;11.460;2022-12-13T14:42:27;-4.10;1.00
36322;DHT22;23564;48.290;11.460;2022-12-13T14:44:55;-4.20;91.40
36322;DHT22;23564;48.290;11.460;2022-12-13T14:47:21;-4.20;99.90
36322;DHT22;23564;48.290;11.460;2022-12-13T14:49:52;-4.20;99.90
36322;DHT22;23564;48.290;11.460;2022-12-13T14:52:24;-4.20;99.90
36322;DHT22;23564;48.290;11.460;2022-12-13T14:54:51;-4.30;99.90
36322;DHT22;23564;48.290;11.460;2022-12-13T14:57:20;-4.40;99.90
36322;DHT22;23564;48.290;11.460;2022-12-13T14:59:48;-4.40;99.90
36322;DHT22;23564;48.290;11.460;2022-12-13T15:02:17;-4.40;99.90
36322;DHT22;23564;48.290;11.460;2022-12-13T15:04:43;-4.40;1.00
36322;DHT22;23564;48.290;11.460;2022-12-13T15:07:13;-4.50;1.00
36322;DHT22;23564;48.290;11.460;2022-12-13T15:09:43;-4.50;1.00
36322;DHT22;23564;48.290;11.460;2022-12-13T15:12:14;-4.50;1.00
36322;DHT22;23564;48.290;11.460;2022-12-13T15:14:42;-4.50;1.00
36322;DHT22;23564;48.290;11.460;2022-12-13T15:19:53;-4.60;1.00
36322;DHT22;23564;48.290;11.460;2022-12-13T15:22:18;-4.60;1.00
36322;DHT22;23564;48.290;11.460;2022-12-13T15:24:44;-4.60;1.00
36322;DHT22;23564;48.290;11.460;2022-12-13T15:27:18;-4.60;1.00
36322;DHT22;23564;48.290;11.460;2022-12-13T15:29:46;-4.60;1.00
36322;DHT22;23564;48.290;11.460;2022-12-13T15:32:15;-4.60;1.00
36322;DHT22;23564;48.290;11.460;2022-12-13T15:34:44;-4.70;1.00
36322;DHT22;23564;48.290;11.460;2022-12-13T15:39:41;-4.70;1.00
36322;DHT22;23564;48.290;11.460;2022-12-13T15:42:21;-4.80;1.00
36322;DHT22;23564;48.290;11.460;2022-12-13T15:44:51;-4.80;20.80
36322;DHT22;23564;48.290;11.460;2022-12-13T15:47:19;-4.70;34.70
36322;DHT22;23564;48.290;11.460;2022-12-13T15:50:02;-4.70;99.90
36322;DHT22;23564;48.290;11.460;2022-12-13T15:52:39;-4.70;31.00
36322;DHT22;23564;48.290;11.460;2022-12-13T15:57:53;-4.80;52.30
36322;DHT22;23564;48.290;11.460;2022-12-13T16:00:22;-4.80;99.90
36322;DHT22;23564;48.290;11.460;2022-12-13T16:05:32;-4.80;94.30
36322;DHT22;23564;48.290;11.460;2022-12-13T16:08:05;-4.80;67.90
36322;DHT22;23564;48.290;11.460;2022-12-13T16:10:31;-4.80;69.80
36322;DHT22;23564;48.290;11.460;2022-12-13T16:13:02;-4.80;70.10
36322;DHT22;23564;48.290;11.460;2022-12-13T16:15:30;-4.80;52.10
36322;DHT22;23564;48.290;11.460;2022-12-13T16:18:24;-4.70;81.20
36322;DHT22;23564;48.290;11.460;2022-12-13T16:20:52;-4.80;61.90
36322;DHT22;23564;48.290;11.460;2022-12-13T16:23:17;-4.80;69.20
36322;DHT22;23564;48.290;11.460;2022-12-13T16:25:43;-4.80;88.00
36322;DHT22;23564;48.290;11.460;2022-12-13T16:28:14;-4.80;67.40
36322;DHT22;23564;48.290;11.460;2022-12-13T16:30:54;-4.90;99.90
36322;DHT22;23564;48.290;11.460;2022-12-13T16:33:24;-4.90;99.90
36322;DHT22;23564;48.290;11.460;2022-12-13T16:35:50;-4.90;99.90
36322;DHT22;23564;48.290;11.460;2022-12-13T16:38:16;-4.90;99.90
36322;DHT22;23564;48.290;11.460;2022-12-13T16:40:43;-4.90;99.90
36322;DHT22;23564;48.290;11.460;2022-12-13T16:43:21;-4.90;99.90
36322;DHT22;23564;48.290;11.460;2022-12-13T16:45:49;-4.90;99.90
36322;DHT22;23564;48.290;11.460;2022-12-13T16:48:15;-4.90;99.90
36322;DHT22;23564;48.290;11.460;2022-12-13T16:50:44;-4.90;99.90
36322;DHT22;23564;48.290;11.460;2022-12-13T16:53:11;-4.90;99.90
36322;DHT22;23564;48.290;11.460;2022-12-13T16:55:37;-4.90;99.90
36322;DHT22;23564;48.290;11.460;2022-12-13T16:58:05;-4.90;99.90
36322;DHT22;23564;48.290;11.460;2022-12-13T17:00:31;-4.90;99.90
36322;DHT22;23564;48.290;11.460;2022-12-13T17:02:57;-4.90;99.90
36322;DHT22;23564;48.290;11.460;2022-12-13T17:05:25;-5.00;99.90
36322;DHT22;23564;48.290;11.460;2022-12-13T17:07:51;-5.00;99.90
36322;DHT22;23564;48.290;11.460;2022-12-13T17:10:17;-5.00;99.90
36322;DHT22;23564;48.290;11.460;2022-12-13T17:12:43;-5.00;99.90
36322;DHT22;23564;48.290;11.460;2022-12-13T17:15:10;-5.00;99.90
36322;DHT22;23564;48.290;11.460;2022-12-13T17:17:38;-5.00;99.90
36322;DHT22;23564;48.290;11.460;2022-12-13T17:20:05;-5.10;99.90
36322;DHT22;23564;48.290;11.460;2022-12-13T17:22:31;-5.10;99.90
36322;DHT22;23564;48.290;11.460;2022-12-13T17:24:57;-5.10;99.90
36322;DHT22;23564;48.290;11.460;2022-12-13T17:32:34;-5.10;99.90
36322;DHT22;23564;48.290;11.460;2022-12-13T17:37:35;-5.10;99.90
36322;DHT22;23564;48.290;11.460;2022-12-13T17:40:01;-5.20;99.90
36322;DHT22;23564;48.290;11.460;2022-12-13T17:42:27;-5.20;99.90
36322;DHT22;23564;48.290;11.460;2022-12-13T17:44:52;-5.20;99.90
36322;DHT22;23564;48.290;11.460;2022-12-13T17:47:18;-5.20;99.90
36322;DHT22;23564;48.290;11.460;2022-12-13T17:49:43;-5.20;99.90